KCSV/CSV METAR and TAF weather

Enter ICAO airport designator
Station Type Date Time Source
KCSV METAR 2020/04/05 04:53 UTC NOAA

KCSV 050453Z AUTO 34003KT 10SM BKN110 16/05 A3002 RMK AO2 SLP151 T01560050


Station Type Date Time Source
KCSV Decoded METAR 2020/04/05 04:53 UTC NOAA

CROSSVILLE MEMORIAL AIRPORT , TN, United States (KCSV) 35-57N 85-05W 570M
Apr 05, 2020 - 12:53 AM EDT / 2020.04.05 0453 UTC
Wind: from the NNW (340 degrees) at 3 MPH (3 KT):0
Visibility: 10 mile(s):0
Sky conditions: mostly cloudy
Temperature: 60.1 F (15.6 C)
Dew Point: 41.0 F (5.0 C)
Relative Humidity: 49%
Pressure (altimeter): 30.02 in. Hg (1016 hPa)
ob: KCSV 050453Z AUTO 34003KT 10SM BKN110 16/05 A3002 RMK AO2 SLP151 T01560050
cycle: 5

Station Type Date Time Source
KCSV TAF 2020/04/05 06:22 UTC NOAA

TAF KCSV 050520Z 0506/0606 34003KT P6SM BKN110

Example: see airport list